sensor_id;sensor_type;location;lat;lon;timestamp;P1;durP1;ratioP1;P2;durP2;ratioP2
64018;SDS011;66942;52.138;5.216;2023-05-16T00:02:25;13.4;;;3.5;;
64018;SDS011;66942;52.138;5.216;2023-05-16T00:04:01;11.6;;;3.2;;
64018;SDS011;66942;52.138;5.216;2023-05-16T00:05:37;15.1;;;3.8;;
64018;SDS011;66942;52.138;5.216;2023-05-16T00:08:49;15.5;;;4.2;;
64018;SDS011;66942;52.138;5.216;2023-05-16T00:10:26;14.8;;;3.9;;
64018;SDS011;66942;52.138;5.216;2023-05-16T00:12:02;12.3;;;3.1;;
64018;SDS011;66942;52.138;5.216;2023-05-16T00:15:14;15.2;;;4.0;;
64018;SDS011;66942;52.138;5.216;2023-05-16T00:16:50;13.6;;;3.3;;
64018;SDS011;66942;52.138;5.216;2023-05-16T00:18:26;13.0;;;3.2;;
64018;SDS011;66942;52.138;5.216;2023-05-16T00:21:40;15.2;;;3.5;;
64018;SDS011;66942;52.138;5.216;2023-05-16T00:23:16;12.5;;;3.4;;
64018;SDS011;66942;52.138;5.216;2023-05-16T00:24:52;14.3;;;3.4;;
64018;SDS011;66942;52.138;5.216;2023-05-16T00:26:28;12.9;;;3.5;;
64018;SDS011;66942;52.138;5.216;2023-05-16T00:29:40;13.8;;;3.7;;
64018;SDS011;66942;52.138;5.216;2023-05-16T00:31:16;9.4;;;2.9;;
64018;SDS011;66942;52.138;5.216;2023-05-16T00:32:53;9.31;;;3.3;;
64018;SDS011;66942;52.138;5.216;2023-05-16T00:36:05;12.2;;;3.1;;
64018;SDS011;66942;52.138;5.216;2023-05-16T00:37:42;9.21;;;2.8;;
64018;SDS011;66942;52.138;5.216;2023-05-16T00:39:18;12.3;;;3.6;;
64018;SDS011;66942;52.138;5.216;2023-05-16T00:42:31;12.6;;;3.4;;
64018;SDS011;66942;52.138;5.216;2023-05-16T00:44:07;11.2;;;3.2;;
64018;SDS011;66942;52.138;5.216;2023-05-16T00:45:43;9.1;;;2.9;;
64018;SDS011;66942;52.138;5.216;2023-05-16T00:47:19;12.5;;;3.3;;
64018;SDS011;66942;52.138;5.216;2023-05-16T00:50:32;18.0;;;3.6;;
64018;SDS011;66942;52.138;5.216;2023-05-16T00:52:09;10.9;;;3.4;;
64018;SDS011;66942;52.138;5.216;2023-05-16T00:53:45;13.5;;;3.5;;
64018;SDS011;66942;52.138;5.216;2023-05-16T00:56:57;14.9;;;3.4;;
64018;SDS011;66942;52.138;5.216;2023-05-16T00:58:34;12.9;;;3.6;;
64018;SDS011;66942;52.138;5.216;2023-05-16T01:00:11;9.4;;;3.0;;
64018;SDS011;66942;52.138;5.216;2023-05-16T01:03:26;10.7;;;2.9;;
64018;SDS011;66942;52.138;5.216;2023-05-16T01:05:02;12.0;;;3.3;;
64018;SDS011;66942;52.138;5.216;2023-05-16T01:06:39;12.3;;;3.5;;
64018;SDS011;66942;52.138;5.216;2023-05-16T01:08:16;14.3;;;3.7;;
64018;SDS011;66942;52.138;5.216;2023-05-16T01:11:30;11.7;;;3.4;;
64018;SDS011;66942;52.138;5.216;2023-05-16T01:13:16;11.5;;;3.2;;
64018;SDS011;66942;52.138;5.216;2023-05-16T01:14:59;11.7;;;3.0;;
64018;SDS011;66942;52.138;5.216;2023-05-16T01:16:41;12.1;;;3.5;;
64018;SDS011;66942;52.138;5.216;2023-05-16T01:20:18;14.9;;;3.7;;
64018;SDS011;66942;52.138;5.216;2023-05-16T01:22:05;12.0;;;3.4;;
64018;SDS011;66942;52.138;5.216;2023-05-16T01:23:50;10.0;;;3.0;;
64018;SDS011;66942;52.138;5.216;2023-05-16T01:25:31;14.6;;;3.2;;
64018;SDS011;66942;52.138;5.216;2023-05-16T01:27:19;11.5;;;3.2;;
64018;SDS011;66942;52.138;5.216;2023-05-16T01:30:35;13.7;;;3.3;;
64018;SDS011;66942;52.138;5.216;2023-05-16T01:32:15;12.6;;;3.0;;
64018;SDS011;66942;52.138;5.216;2023-05-16T01:33:51;12.2;;;3.1;;
64018;SDS011;66942;52.138;5.216;2023-05-16T01:35:27;11.2;;;3.5;;
64018;SDS011;66942;52.138;5.216;2023-05-16T01:38:53;10.9;;;3.0;;
64018;SDS011;66942;52.138;5.216;2023-05-16T01:40:44;15.5;;;3.3;;
64018;SDS011;66942;52.138;5.216;2023-05-16T01:42:28;11.4;;;3.5;;
64018;SDS011;66942;52.138;5.216;2023-05-16T01:44:12;12.8;;;3.4;;
64018;SDS011;66942;52.138;5.216;2023-05-16T01:46:02;12.7;;;3.3;;
64018;SDS011;66942;52.138;5.216;2023-05-16T01:49:35;11.8;;;3.1;;
64018;SDS011;66942;52.138;5.216;2023-05-16T01:51:18;10.6;;;3.0;;
64018;SDS011;66942;52.138;5.216;2023-05-16T01:52:58;13.6;;;3.6;;
64018;SDS011;66942;52.138;5.216;2023-05-16T01:54:38;9.1;;;3.1;;
64018;SDS011;66942;52.138;5.216;2023-05-16T01:56:19;12.3;;;3.1;;
64018;SDS011;66942;52.138;5.216;2023-05-16T01:59:35;11.0;;;2.9;;
64018;SDS011;66942;52.138;5.216;2023-05-16T02:01:13;9.0;;;3.1;;
64018;SDS011;66942;52.138;5.216;2023-05-16T02:02:49;12.0;;;3.4;;
64018;SDS011;66942;52.138;5.216;2023-05-16T02:06:01;14.3;;;3.0;;
64018;SDS011;66942;52.138;5.216;2023-05-16T02:07:38;13.4;;;3.0;;
64018;SDS011;66942;52.138;5.216;2023-05-16T02:09:14;13.4;;;3.6;;
64018;SDS011;66942;52.138;5.216;2023-05-16T02:12:26;14.5;;;3.4;;
64018;SDS011;66942;52.138;5.216;2023-05-16T02:14:02;14.9;;;3.7;;
64018;SDS011;66942;52.138;5.216;2023-05-16T02:15:38;10.1;;;3.2;;
64018;SDS011;66942;52.138;5.216;2023-05-16T02:17:15;12.5;;;3.2;;
64018;SDS011;66942;52.138;5.216;2023-05-16T02:20:27;12.7;;;3.4;;
64018;SDS011;66942;52.138;5.216;2023-05-16T02:22:03;9.5;;;3.4;;
64018;SDS011;66942;52.138;5.216;2023-05-16T02:23:39;11.3;;;3.0;;
64018;SDS011;66942;52.138;5.216;2023-05-16T02:26:51;11.9;;;3.4;;
64018;SDS011;66942;52.138;5.216;2023-05-16T02:28:28;13.4;;;3.4;;
64018;SDS011;66942;52.138;5.216;2023-05-16T02:30:04;10.7;;;2.9;;
64018;SDS011;66942;52.138;5.216;2023-05-16T02:33:17;11.0;;;3.4;;
64018;SDS011;66942;52.138;5.216;2023-05-16T02:34:53;11.3;;;3.1;;
64018;SDS011;66942;52.138;5.216;2023-05-16T02:36:29;11.7;;;3.1;;
64018;SDS011;66942;52.138;5.216;2023-05-16T02:39:43;10.1;;;3.0;;
64018;SDS011;66942;52.138;5.216;2023-05-16T02:41:19;13.3;;;3.2;;
64018;SDS011;66942;52.138;5.216;2023-05-16T02:42:55;13.5;;;3.7;;
64018;SDS011;66942;52.138;5.216;2023-05-16T02:44:31;14.9;;;3.1;;
64018;SDS011;66942;52.138;5.216;2023-05-16T02:47:56;11.9;;;3.2;;
64018;SDS011;66942;52.138;5.216;2023-05-16T02:49:32;12.0;;;3.0;;
64018;SDS011;66942;52.138;5.216;2023-05-16T02:51:08;10.8;;;3.7;;
64018;SDS011;66942;52.138;5.216;2023-05-16T02:54:20;10.6;;;3.0;;
64018;SDS011;66942;52.138;5.216;2023-05-16T02:55:56;12.3;;;3.4;;
64018;SDS011;66942;52.138;5.216;2023-05-16T02:57:33;14.4;;;3.2;;
64018;SDS011;66942;52.138;5.216;2023-05-16T02:59:09;12.4;;;3.2;;
64018;SDS011;66942;52.138;5.216;2023-05-16T03:02:22;13.8;;;3.5;;
64018;SDS011;66942;52.138;5.216;2023-05-16T03:03:58;12.0;;;3.1;;
64018;SDS011;66942;52.138;5.216;2023-05-16T03:05:34;11.4;;;3.2;;
64018;SDS011;66942;52.138;5.216;2023-05-16T03:08:47;13.8;;;3.7;;
64018;SDS011;66942;52.138;5.216;2023-05-16T03:10:23;11.7;;;3.1;;
64018;SDS011;66942;52.138;5.216;2023-05-16T03:11:59;9.1;;;2.9;;
64018;SDS011;66942;52.138;5.216;2023-05-16T03:15:11;11.9;;;3.2;;
64018;SDS011;66942;52.138;5.216;2023-05-16T03:16:47;11.9;;;3.5;;
64018;SDS011;66942;52.138;5.216;2023-05-16T03:18:24;12.6;;;2.9;;
64018;SDS011;66942;52.138;5.216;2023-05-16T03:19:59;14.0;;;3.1;;
64018;SDS011;66942;52.138;5.216;2023-05-16T03:23:11;15.6;;;3.5;;
64018;SDS011;66942;52.138;5.216;2023-05-16T03:24:47;11.2;;;3.2;;
64018;SDS011;66942;52.138;5.216;2023-05-16T03:26:24;13.8;;;3.4;;
64018;SDS011;66942;52.138;5.216;2023-05-16T03:29:36;10.8;;;3.0;;
64018;SDS011;66942;52.138;5.216;2023-05-16T03:31:12;13.2;;;3.3;;
64018;SDS011;66942;52.138;5.216;2023-05-16T03:32:48;11.9;;;3.1;;
64018;SDS011;66942;52.138;5.216;2023-05-16T03:36:00;11.7;;;3.2;;
64018;SDS011;66942;52.138;5.216;2023-05-16T03:37:37;10.6;;;3.2;;
64018;SDS011;66942;52.138;5.216;2023-05-16T03:39:13;11.2;;;2.9;;
64018;SDS011;66942;52.138;5.216;2023-05-16T03:42:25;13.9;;;3.5;;
64018;SDS011;66942;52.138;5.216;2023-05-16T03:44:01;11.5;;;3.5;;
64018;SDS011;66942;52.138;5.216;2023-05-16T03:45:37;17.2;;;3.8;;
64018;SDS011;66942;52.138;5.216;2023-05-16T03:47:14;9.9;;;3.3;;
64018;SDS011;66942;52.138;5.216;2023-05-16T03:50:26;14.6;;;3.7;;
64018;SDS011;66942;52.138;5.216;2023-05-16T03:52:02;12.2;;;3.2;;
64018;SDS011;66942;52.138;5.216;2023-05-16T03:53:38;11.4;;;3.1;;
64018;SDS011;66942;52.138;5.216;2023-05-16T03:56:50;10.0;;;3.1;;
64018;SDS011;66942;52.138;5.216;2023-05-16T03:58:27;11.1;;;4.0;;
64018;SDS011;66942;52.138;5.216;2023-05-16T04:00:03;13.7;;;3.6;;
64018;SDS011;66942;52.138;5.216;2023-05-16T04:03:18;17.3;;;4.1;;
64018;SDS011;66942;52.138;5.216;2023-05-16T04:04:54;13.9;;;3.5;;
64018;SDS011;66942;52.138;5.216;2023-05-16T04:06:30;12.8;;;3.8;;
64018;SDS011;66942;52.138;5.216;2023-05-16T04:08:07;14.9;;;3.7;;
64018;SDS011;66942;52.138;5.216;2023-05-16T04:11:19;13.3;;;3.2;;
64018;SDS011;66942;52.138;5.216;2023-05-16T04:12:55;10.4;;;3.6;;
64018;SDS011;66942;52.138;5.216;2023-05-16T04:14:32;13.1;;;3.5;;
64018;SDS011;66942;52.138;5.216;2023-05-16T04:17:46;10.7;;;3.8;;
64018;SDS011;66942;52.138;5.216;2023-05-16T04:19:22;10.21;;;3.0;;
64018;SDS011;66942;52.138;5.216;2023-05-16T04:20:58;12.3;;;3.8;;
64018;SDS011;66942;52.138;5.216;2023-05-16T04:24:10;12.7;;;3.2;;
64018;SDS011;66942;52.138;5.216;2023-05-16T04:25:47;11.1;;;3.3;;
64018;SDS011;66942;52.138;5.216;2023-05-16T04:27:23;13.6;;;3.2;;
64018;SDS011;66942;52.138;5.216;2023-05-16T04:30:35;11.2;;;3.7;;
64018;SDS011;66942;52.138;5.216;2023-05-16T04:32:11;9.71;;;3.7;;
64018;SDS011;66942;52.138;5.216;2023-05-16T04:33:47;11.7;;;3.4;;
64018;SDS011;66942;52.138;5.216;2023-05-16T04:35:24;9.31;;;3.4;;
64018;SDS011;66942;52.138;5.216;2023-05-16T04:38:38;9.4;;;2.7;;
64018;SDS011;66942;52.138;5.216;2023-05-16T04:40:14;8.0;;;3.1;;
64018;SDS011;66942;52.138;5.216;2023-05-16T04:41:50;11.0;;;3.6;;
64018;SDS011;66942;52.138;5.216;2023-05-16T04:45:03;8.81;;;2.7;;
64018;SDS011;66942;52.138;5.216;2023-05-16T04:46:40;11.7;;;3.5;;
64018;SDS011;66942;52.138;5.216;2023-05-16T04:48:16;11.9;;;3.4;;
64018;SDS011;66942;52.138;5.216;2023-05-16T04:51:28;9.9;;;3.0;;
64018;SDS011;66942;52.138;5.216;2023-05-16T04:53:04;10.7;;;3.0;;
64018;SDS011;66942;52.138;5.216;2023-05-16T04:54:40;11.3;;;3.1;;
64018;SDS011;66942;52.138;5.216;2023-05-16T04:56:17;8.31;;;3.0;;
64018;SDS011;66942;52.138;5.216;2023-05-16T04:59:29;7.9;;;2.5;;
64018;SDS011;66942;52.138;5.216;2023-05-16T05:01:05;10.4;;;2.7;;
64018;SDS011;66942;52.138;5.216;2023-05-16T05:02:41;11.4;;;3.2;;
64018;SDS011;66942;52.138;5.216;2023-05-16T05:05:54;10.5;;;2.8;;
64018;SDS011;66942;52.138;5.216;2023-05-16T05:07:30;7.8;;;2.4;;
64018;SDS011;66942;52.138;5.216;2023-05-16T05:09:07;8.5;;;3.1;;
64018;SDS011;66942;52.138;5.216;2023-05-16T05:12:19;8.71;;;2.6;;
64018;SDS011;66942;52.138;5.216;2023-05-16T05:13:56;10.9;;;2.6;;
64018;SDS011;66942;52.138;5.216;2023-05-16T05:15:32;9.21;;;3.1;;
64018;SDS011;66942;52.138;5.216;2023-05-16T05:17:08;7.7;;;2.7;;
64018;SDS011;66942;52.138;5.216;2023-05-16T05:20:20;9.1;;;3.2;;
64018;SDS011;66942;52.138;5.216;2023-05-16T05:21:56;8.71;;;2.8;;
64018;SDS011;66942;52.138;5.216;2023-05-16T05:23:33;8.0;;;2.7;;
64018;SDS011;66942;52.138;5.216;2023-05-16T05:26:45;11.9;;;3.1;;
64018;SDS011;66942;52.138;5.216;2023-05-16T05:28:21;8.9;;;2.7;;
64018;SDS011;66942;52.138;5.216;2023-05-16T05:29:56;9.4;;;3.1;;
64018;SDS011;66942;52.138;5.216;2023-05-16T05:33:09;12.3;;;3.5;;
64018;SDS011;66942;52.138;5.216;2023-05-16T05:34:46;11.8;;;2.9;;
64018;SDS011;66942;52.138;5.216;2023-05-16T05:36:22;9.71;;;2.8;;
64018;SDS011;66942;52.138;5.216;2023-05-16T05:39:35;8.2;;;2.7;;
64018;SDS011;66942;52.138;5.216;2023-05-16T05:41:11;11.6;;;3.5;;
64018;SDS011;66942;52.138;5.216;2023-05-16T05:42:48;11.1;;;3.1;;
64018;SDS011;66942;52.138;5.216;2023-05-16T05:44:24;11.1;;;3.2;;
64018;SDS011;66942;52.138;5.216;2023-05-16T05:47:36;9.81;;;2.9;;
64018;SDS011;66942;52.138;5.216;2023-05-16T05:49:12;8.2;;;3.4;;
64018;SDS011;66942;52.138;5.216;2023-05-16T05:50:48;8.9;;;2.7;;
64018;SDS011;66942;52.138;5.216;2023-05-16T05:54:01;7.7;;;2.8;;
64018;SDS011;66942;52.138;5.216;2023-05-16T05:55:38;10.7;;;3.1;;
64018;SDS011;66942;52.138;5.216;2023-05-16T05:57:14;10.4;;;2.8;;
64018;SDS011;66942;52.138;5.216;2023-05-16T06:00:26;12.0;;;3.2;;
64018;SDS011;66942;52.138;5.216;2023-05-16T06:02:03;9.21;;;2.4;;
64018;SDS011;66942;52.138;5.216;2023-05-16T06:03:39;9.0;;;2.7;;
64018;SDS011;66942;52.138;5.216;2023-05-16T06:05:15;10.5;;;2.8;;
64018;SDS011;66942;52.138;5.216;2023-05-16T06:08:27;8.2;;;2.8;;
64018;SDS011;66942;52.138;5.216;2023-05-16T06:10:04;9.1;;;2.9;;
64018;SDS011;66942;52.138;5.216;2023-05-16T06:11:41;13.2;;;3.2;;
64018;SDS011;66942;52.138;5.216;2023-05-16T06:14:53;9.81;;;2.6;;
64018;SDS011;66942;52.138;5.216;2023-05-16T06:16:29;10.8;;;2.8;;
64018;SDS011;66942;52.138;5.216;2023-05-16T06:18:05;10.7;;;2.5;;
64018;SDS011;66942;52.138;5.216;2023-05-16T06:21:18;8.9;;;2.6;;
64018;SDS011;66942;52.138;5.216;2023-05-16T06:22:54;7.5;;;2.5;;
64018;SDS011;66942;52.138;5.216;2023-05-16T06:24:30;10.4;;;2.8;;
64018;SDS011;66942;52.138;5.216;2023-05-16T06:27:42;8.31;;;2.9;;
64018;SDS011;66942;52.138;5.216;2023-05-16T06:29:19;7.6;;;2.4;;
64018;SDS011;66942;52.138;5.216;2023-05-16T06:30:55;8.81;;;2.5;;
64018;SDS011;66942;52.138;5.216;2023-05-16T06:32:31;6.5;;;2.21;;
64018;SDS011;66942;52.138;5.216;2023-05-16T06:35:43;7.2;;;2.4;;
64018;SDS011;66942;52.138;5.216;2023-05-16T06:37:19;7.9;;;2.1;;
64018;SDS011;66942;52.138;5.216;2023-05-16T06:38:57;6.4;;;1.7;;
64018;SDS011;66942;52.138;5.216;2023-05-16T06:42:09;6.7;;;2.1;;
64018;SDS011;66942;52.138;5.216;2023-05-16T06:43:45;6.2;;;1.8;;
64018;SDS011;66942;52.138;5.216;2023-05-16T06:45:21;5.11;;;1.8;;
64018;SDS011;66942;52.138;5.216;2023-05-16T06:48:34;6.6;;;1.8;;
64018;SDS011;66942;52.138;5.216;2023-05-16T06:50:10;10.5;;;1.9;;
64018;SDS011;66942;52.138;5.216;2023-05-16T06:51:46;6.6;;;1.8;;
64018;SDS011;66942;52.138;5.216;2023-05-16T06:53:22;7.9;;;1.9;;
64018;SDS011;66942;52.138;5.216;2023-05-16T06:56:34;6.5;;;1.7;;
64018;SDS011;66942;52.138;5.216;2023-05-16T06:58:11;4.41;;;1.6;;
64018;SDS011;66942;52.138;5.216;2023-05-16T06:59:47;5.0;;;1.8;;
64018;SDS011;66942;52.138;5.216;2023-05-16T07:02:59;7.5;;;2.0;;
64018;SDS011;66942;52.138;5.216;2023-05-16T07:04:34;6.8;;;2.1;;
64018;SDS011;66942;52.138;5.216;2023-05-16T07:06:11;6.4;;;1.8;;
64018;SDS011;66942;52.138;5.216;2023-05-16T07:09:23;5.4;;;1.9;;
64018;SDS011;66942;52.138;5.216;2023-05-16T07:10:59;6.0;;;1.8;;
64018;SDS011;66942;52.138;5.216;2023-05-16T07:12:35;6.3;;;2.21;;
64018;SDS011;66942;52.138;5.216;2023-05-16T07:15:48;6.0;;;1.8;;
64018;SDS011;66942;52.138;5.216;2023-05-16T07:17:24;5.3;;;2.0;;
64018;SDS011;66942;52.138;5.216;2023-05-16T07:19:00;4.3;;;1.5;;
64018;SDS011;66942;52.138;5.216;2023-05-16T07:20:36;8.2;;;1.9;;
64018;SDS011;66942;52.138;5.216;2023-05-16T07:23:49;7.4;;;1.8;;
64018;SDS011;66942;52.138;5.216;2023-05-16T07:25:25;5.3;;;1.9;;
64018;SDS011;66942;52.138;5.216;2023-05-16T07:27:01;4.3;;;1.6;;
64018;SDS011;66942;52.138;5.216;2023-05-16T07:30:13;5.0;;;1.6;;
64018;SDS011;66942;52.138;5.216;2023-05-16T07:31:50;3.5;;;1.4;;
64018;SDS011;66942;52.138;5.216;2023-05-16T07:33:26;4.0;;;1.7;;
64018;SDS011;66942;52.138;5.216;2023-05-16T07:36:39;7.3;;;1.7;;
64018;SDS011;66942;52.138;5.216;2023-05-16T07:38:16;4.91;;;1.5;;
64018;SDS011;66942;52.138;5.216;2023-05-16T07:39:52;4.91;;;1.6;;
64018;SDS011;66942;52.138;5.216;2023-05-16T07:41:29;5.2;;;1.7;;
64018;SDS011;66942;52.138;5.216;2023-05-16T07:44:42;5.0;;;1.6;;
64018;SDS011;66942;52.138;5.216;2023-05-16T07:46:18;5.4;;;1.8;;
64018;SDS011;66942;52.138;5.216;2023-05-16T07:47:54;6.5;;;1.9;;
64018;SDS011;66942;52.138;5.216;2023-05-16T07:51:07;6.9;;;1.7;;
64018;SDS011;66942;52.138;5.216;2023-05-16T07:52:43;4.7;;;1.7;;
64018;SDS011;66942;52.138;5.216;2023-05-16T07:54:19;5.11;;;1.6;;
64018;SDS011;66942;52.138;5.216;2023-05-16T07:57:31;6.6;;;1.6;;
64018;SDS011;66942;52.138;5.216;2023-05-16T07:59:07;4.41;;;2.0;;
64018;SDS011;66942;52.138;5.216;2023-05-16T08:00:44;5.9;;;1.7;;
64018;SDS011;66942;52.138;5.216;2023-05-16T08:03:57;3.4;;;1.7;;
64018;SDS011;66942;52.138;5.216;2023-05-16T08:05:33;5.9;;;1.8;;
64018;SDS011;66942;52.138;5.216;2023-05-16T08:07:09;5.2;;;1.7;;
64018;SDS011;66942;52.138;5.216;2023-05-16T08:08:46;5.0;;;1.9;;
64018;SDS011;66942;52.138;5.216;2023-05-16T08:11:58;5.11;;;1.8;;
64018;SDS011;66942;52.138;5.216;2023-05-16T08:13:34;6.6;;;2.0;;
64018;SDS011;66942;52.138;5.216;2023-05-16T08:15:10;9.81;;;1.6;;
64018;SDS011;66942;52.138;5.216;2023-05-16T08:18:22;5.3;;;1.7;;
64018;SDS011;66942;52.138;5.216;2023-05-16T08:19:58;4.41;;;1.6;;
64018;SDS011;66942;52.138;5.216;2023-05-16T08:21:35;4.8;;;1.6;;
64018;SDS011;66942;52.138;5.216;2023-05-16T08:24:49;4.5;;;1.6;;
64018;SDS011;66942;52.138;5.216;2023-05-16T08:26:25;7.3;;;1.8;;
64018;SDS011;66942;52.138;5.216;2023-05-16T08:28:01;3.9;;;1.6;;
64018;SDS011;66942;52.138;5.216;2023-05-16T08:29:38;3.8;;;1.4;;
64018;SDS011;66942;52.138;5.216;2023-05-16T08:32:50;4.8;;;1.5;;
64018;SDS011;66942;52.138;5.216;2023-05-16T08:34:26;5.4;;;1.4;;
64018;SDS011;66942;52.138;5.216;2023-05-16T08:36:05;3.6;;;1.5;;
64018;SDS011;66942;52.138;5.216;2023-05-16T08:39:19;4.2;;;1.4;;
64018;SDS011;66942;52.138;5.216;2023-05-16T08:40:55;5.6;;;1.7;;
64018;SDS011;66942;52.138;5.216;2023-05-16T08:42:32;5.11;;;1.9;;
64018;SDS011;66942;52.138;5.216;2023-05-16T08:45:44;3.1;;;1.3;;
64018;SDS011;66942;52.138;5.216;2023-05-16T08:47:20;4.61;;;1.5;;
64018;SDS011;66942;52.138;5.216;2023-05-16T08:49:01;3.6;;;1.3;;
64018;SDS011;66942;52.138;5.216;2023-05-16T08:50:39;5.11;;;1.8;;
64018;SDS011;66942;52.138;5.216;2023-05-16T08:53:56;5.4;;;1.7;;
64018;SDS011;66942;52.138;5.216;2023-05-16T08:55:37;4.7;;;1.5;;
64018;SDS011;66942;52.138;5.216;2023-05-16T08:57:16;7.2;;;1.8;;
64018;SDS011;66942;52.138;5.216;2023-05-16T08:58:53;5.7;;;1.6;;
64018;SDS011;66942;52.138;5.216;2023-05-16T09:02:06;4.7;;;1.6;;
64018;SDS011;66942;52.138;5.216;2023-05-16T09:03:43;5.11;;;1.9;;
64018;SDS011;66942;52.138;5.216;2023-05-16T09:05:20;3.8;;;1.5;;
64018;SDS011;66942;52.138;5.216;2023-05-16T09:08:34;4.91;;;1.5;;
64018;SDS011;66942;52.138;5.216;2023-05-16T09:10:10;3.8;;;1.7;;
64018;SDS011;66942;52.138;5.216;2023-05-16T09:11:47;5.2;;;1.9;;
64018;SDS011;66942;52.138;5.216;2023-05-16T09:15:00;5.7;;;1.7;;
64018;SDS011;66942;52.138;5.216;2023-05-16T09:16:39;3.2;;;1.6;;
64018;SDS011;66942;52.138;5.216;2023-05-16T09:18:15;4.61;;;1.4;;
64018;SDS011;66942;52.138;5.216;2023-05-16T09:19:51;4.91;;;1.4;;
64018;SDS011;66942;52.138;5.216;2023-05-16T09:23:05;5.2;;;1.7;;
64018;SDS011;66942;52.138;5.216;2023-05-16T09:24:42;5.3;;;2.0;;
64018;SDS011;66942;52.138;5.216;2023-05-16T09:26:20;3.9;;;1.4;;
64018;SDS011;66942;52.138;5.216;2023-05-16T09:29:35;3.3;;;1.3;;
64018;SDS011;66942;52.138;5.216;2023-05-16T09:31:19;3.7;;;1.4;;
64018;SDS011;66942;52.138;5.216;2023-05-16T09:32:56;3.5;;;1.4;;
64018;SDS011;66942;52.138;5.216;2023-05-16T09:34:36;5.3;;;1.3;;
64018;SDS011;66942;52.138;5.216;2023-05-16T09:37:50;4.91;;;1.5;;
64018;SDS011;66942;52.138;5.216;2023-05-16T09:39:26;3.2;;;1.3;;
64018;SDS011;66942;52.138;5.216;2023-05-16T09:41:02;3.0;;;1.5;;
64018;SDS011;66942;52.138;5.216;2023-05-16T09:44:15;2.8;;;1.3;;
64018;SDS011;66942;52.138;5.216;2023-05-16T09:45:53;3.5;;;1.2;;
64018;SDS011;66942;52.138;5.216;2023-05-16T09:47:29;4.61;;;1.7;;
64018;SDS011;66942;52.138;5.216;2023-05-16T09:50:45;4.41;;;1.6;;
64018;SDS011;66942;52.138;5.216;2023-05-16T09:52:25;4.8;;;1.4;;
64018;SDS011;66942;52.138;5.216;2023-05-16T09:54:01;6.0;;;2.0;;
64018;SDS011;66942;52.138;5.216;2023-05-16T09:55:42;5.8;;;1.7;;
64018;SDS011;66942;52.138;5.216;2023-05-16T09:58:54;5.6;;;1.8;;
64018;SDS011;66942;52.138;5.216;2023-05-16T10:00:30;5.5;;;1.7;;
64018;SDS011;66942;52.138;5.216;2023-05-16T10:02:08;5.0;;;1.8;;
64018;SDS011;66942;52.138;5.216;2023-05-16T10:03:45;5.4;;;1.7;;
64018;SDS011;66942;52.138;5.216;2023-05-16T10:07:00;5.9;;;1.7;;
64018;SDS011;66942;52.138;5.216;2023-05-16T10:08:38;3.1;;;1.3;;
64018;SDS011;66942;52.138;5.216;2023-05-16T10:10:17;5.11;;;1.7;;
64018;SDS011;66942;52.138;5.216;2023-05-16T10:13:32;4.2;;;1.6;;
64018;SDS011;66942;52.138;5.216;2023-05-16T10:15:10;3.9;;;1.6;;
64018;SDS011;66942;52.138;5.216;2023-05-16T10:16:47;3.4;;;1.6;;
64018;SDS011;66942;52.138;5.216;2023-05-16T10:18:27;5.5;;;1.8;;
64018;SDS011;66942;52.138;5.216;2023-05-16T10:21:47;4.8;;;1.6;;
64018;SDS011;66942;52.138;5.216;2023-05-16T10:23:27;4.41;;;1.8;;
64018;SDS011;66942;52.138;5.216;2023-05-16T10:25:07;3.4;;;1.4;;
64018;SDS011;66942;52.138;5.216;2023-05-16T10:26:50;5.6;;;1.9;;
64018;SDS011;66942;52.138;5.216;2023-05-16T10:30:04;5.3;;;1.7;;
64018;SDS011;66942;52.138;5.216;2023-05-16T10:31:42;5.7;;;1.7;;
64018;SDS011;66942;52.138;5.216;2023-05-16T10:33:18;4.1;;;1.5;;
64018;SDS011;66942;52.138;5.216;2023-05-16T10:36:31;4.5;;;1.2;;
64018;SDS011;66942;52.138;5.216;2023-05-16T10:38:07;4.0;;;1.5;;
64018;SDS011;66942;52.138;5.216;2023-05-16T10:39:46;4.41;;;1.5;;
64018;SDS011;66942;52.138;5.216;2023-05-16T10:43:00;5.4;;;1.5;;
64018;SDS011;66942;52.138;5.216;2023-05-16T10:44:38;3.4;;;1.4;;
64018;SDS011;66942;52.138;5.216;2023-05-16T10:46:14;5.5;;;1.4;;
64018;SDS011;66942;52.138;5.216;2023-05-16T10:47:51;4.2;;;1.4;;
64018;SDS011;66942;52.138;5.216;2023-05-16T10:51:32;3.5;;;1.2;;
64018;SDS011;66942;52.138;5.216;2023-05-16T10:53:18;2.6;;;1.0;;
64018;SDS011;66942;52.138;5.216;2023-05-16T10:54:56;3.6;;;1.2;;
64018;SDS011;66942;52.138;5.216;2023-05-16T10:56:38;3.4;;;1.4;;
64018;SDS011;66942;52.138;5.216;2023-05-16T10:58:17;2.7;;;1.11;;
64018;SDS011;66942;52.138;5.216;2023-05-16T11:01:34;4.41;;;1.5;;
64018;SDS011;66942;52.138;5.216;2023-05-16T11:03:18;2.7;;;1.3;;
64018;SDS011;66942;52.138;5.216;2023-05-16T11:04:58;4.7;;;1.6;;
64018;SDS011;66942;52.138;5.216;2023-05-16T11:06:44;5.11;;;1.7;;
64018;SDS011;66942;52.138;5.216;2023-05-16T11:10:05;3.8;;;1.3;;
64018;SDS011;66942;52.138;5.216;2023-05-16T11:11:44;3.2;;;1.6;;
64018;SDS011;66942;52.138;5.216;2023-05-16T11:13:23;3.1;;;1.3;;
64018;SDS011;66942;52.138;5.216;2023-05-16T11:14:59;2.8;;;1.11;;
64018;SDS011;66942;52.138;5.216;2023-05-16T11:18:14;3.3;;;1.4;;
64018;SDS011;66942;52.138;5.216;2023-05-16T11:19:53;4.3;;;1.5;;
64018;SDS011;66942;52.138;5.216;2023-05-16T11:22:37;3.3;;;1.11;;
64018;SDS011;66942;52.138;5.216;2023-05-16T11:24:30;4.3;;;1.4;;
64018;SDS011;66942;52.138;5.216;2023-05-16T11:26:07;4.7;;;1.5;;
64018;SDS011;66942;52.138;5.216;2023-05-16T11:27:44;4.3;;;1.3;;
64018;SDS011;66942;52.138;5.216;2023-05-16T11:30:59;3.2;;;1.3;;
64018;SDS011;66942;52.138;5.216;2023-05-16T11:32:36;4.0;;;1.5;;
64018;SDS011;66942;52.138;5.216;2023-05-16T11:34:16;3.4;;;1.11;;
64018;SDS011;66942;52.138;5.216;2023-05-16T11:36:00;4.7;;;1.5;;
64018;SDS011;66942;52.138;5.216;2023-05-16T11:39:14;4.1;;;1.5;;
64018;SDS011;66942;52.138;5.216;2023-05-16T11:40:50;2.9;;;1.2;;
64018;SDS011;66942;52.138;5.216;2023-05-16T11:42:28;3.8;;;1.3;;
64018;SDS011;66942;52.138;5.216;2023-05-16T11:45:41;5.4;;;1.11;;
64018;SDS011;66942;52.138;5.216;2023-05-16T11:47:17;4.8;;;1.5;;
64018;SDS011;66942;52.138;5.216;2023-05-16T11:48:53;4.8;;;1.5;;
64018;SDS011;66942;52.138;5.216;2023-05-16T11:50:29;2.4;;;1.0;;
64018;SDS011;66942;52.138;5.216;2023-05-16T11:53:45;3.5;;;1.3;;
64018;SDS011;66942;52.138;5.216;2023-05-16T11:55:23;4.91;;;1.5;;
64018;SDS011;66942;52.138;5.216;2023-05-16T11:57:01;4.0;;;1.5;;
64018;SDS011;66942;52.138;5.216;2023-05-16T12:00:14;3.3;;;1.3;;
64018;SDS011;66942;52.138;5.216;2023-05-16T12:01:52;3.3;;;1.3;;
64018;SDS011;66942;52.138;5.216;2023-05-16T12:03:29;3.9;;;1.5;;
64018;SDS011;66942;52.138;5.216;2023-05-16T12:05:06;4.8;;;1.6;;
64018;SDS011;66942;52.138;5.216;2023-05-16T12:08:19;4.91;;;1.6;;
64018;SDS011;66942;52.138;5.216;2023-05-16T12:09:56;5.4;;;1.6;;
64018;SDS011;66942;52.138;5.216;2023-05-16T12:11:32;4.91;;;1.6;;
64018;SDS011;66942;52.138;5.216;2023-05-16T12:14:46;5.7;;;1.7;;
64018;SDS011;66942;52.138;5.216;2023-05-16T12:16:22;3.2;;;1.3;;
64018;SDS011;66942;52.138;5.216;2023-05-16T12:17:58;4.2;;;1.5;;
64018;SDS011;66942;52.138;5.216;2023-05-16T12:21:11;4.8;;;1.6;;
64018;SDS011;66942;52.138;5.216;2023-05-16T12:22:48;4.2;;;1.5;;
64018;SDS011;66942;52.138;5.216;2023-05-16T12:24:28;5.4;;;1.6;;
64018;SDS011;66942;52.138;5.216;2023-05-16T12:26:05;4.3;;;1.5;;
64018;SDS011;66942;52.138;5.216;2023-05-16T12:29:17;5.5;;;1.7;;
64018;SDS011;66942;52.138;5.216;2023-05-16T12:30:55;5.0;;;1.6;;
64018;SDS011;66942;52.138;5.216;2023-05-16T12:32:35;5.9;;;1.8;;
64018;SDS011;66942;52.138;5.216;2023-05-16T12:35:50;5.5;;;1.6;;
64018;SDS011;66942;52.138;5.216;2023-05-16T12:37:26;3.1;;;1.7;;
64018;SDS011;66942;52.138;5.216;2023-05-16T12:39:02;4.41;;;1.7;;
64018;SDS011;66942;52.138;5.216;2023-05-16T12:40:39;4.7;;;1.7;;
64018;SDS011;66942;52.138;5.216;2023-05-16T12:44:05;5.2;;;1.6;;
64018;SDS011;66942;52.138;5.216;2023-05-16T12:45:41;4.61;;;1.8;;
64018;SDS011;66942;52.138;5.216;2023-05-16T12:47:23;6.2;;;1.7;;
64018;SDS011;66942;52.138;5.216;2023-05-16T12:49:09;4.7;;;1.4;;
64018;SDS011;66942;52.138;5.216;2023-05-16T12:52:23;6.1;;;1.3;;
64018;SDS011;66942;52.138;5.216;2023-05-16T12:54:05;6.9;;;1.7;;